Time;durP1;ratioP1;P1;durP2;ratioP2;P2;SDS_P1;SDS_P2;PMS_P1;PMS_P2;Temp;Humidity;BMP_temperature;BMP_pressure;BME280_temperature;BME280_humidity;BME280_pressure;Samples;Min_cycle;Max_cycle;Signal;HPM_P1;HPM_P2
2022/09/02 00:01:00;;;;;;;11.95;11.25;;;;;;;;;;5040048;28;20477;-58
2022/09/02 00:03:34;;;;;;;11.05;10.35;;;;;;;;;;5042666;28;20036;-58
2022/09/02 00:06:01;;;;;;;10.25;9.65;;;;;;;;;;5035570;28;20029;-58
2022/09/02 00:08:27;;;;;;;8.38;7.88;;;;;;;;;;5040710;28;20368;-58
2022/09/02 00:10:53;;;;;;;10.52;9.93;;;;;;;;;;5037531;28;20491;-58
2022/09/02 00:13:20;;;;;;;10.40;9.80;;;;;;;;;;5040093;28;20025;-57
2022/09/02 00:15:47;;;;;;;8.98;8.38;;;;;;;;;;5039754;28;20389;-58
2022/09/02 00:18:14;;;;;;;9.13;8.52;;;;;;;;;;5040801;28;20064;-58
2022/09/02 00:20:41;;;;;;;11.10;10.40;;;;;;;;;;5035947;28;20043;-58
2022/09/02 00:23:08;;;;;;;10.82;10.20;;;;;;;;;;5041661;28;20064;-58
2022/09/02 00:25:34;;;;;;;13.18;12.38;;;;;;;;;;5041091;28;20033;-58
2022/09/02 00:28:00;;;;;;;12.45;11.75;;;;;;;;;;5039001;28;20036;-58
2022/09/02 00:30:26;;;;;;;10.77;10.00;;;;;;;;;;5039288;28;20040;-58
2022/09/02 00:32:53;;;;;;;12.13;11.43;;;;;;;;;;5037829;28;20029;-58
2022/09/02 00:35:18;;;;;;;14.00;13.20;;;;;;;;;;5037105;28;20032;-58
2022/09/02 00:37:44;;;;;;;12.75;11.98;;;;;;;;;;5038475;28;20029;-58
2022/09/02 00:40:10;;;;;;;9.75;9.15;;;;;;;;;;5038221;28;20300;-57
2022/09/02 00:42:36;;;;;;;10.82;10.20;;;;;;;;;;5035411;28;20037;-58
2022/09/02 00:45:02;;;;;;;13.95;13.15;;;;;;;;;;5037142;28;20534;-63
2022/09/02 00:47:29;;;;;;;12.18;11.45;;;;;;;;;;5039790;28;20035;-59
2022/09/02 00:49:57;;;;;;;12.98;12.18;;;;;;;;;;5036849;28;20037;-59
2022/09/02 00:52:30;;;;;;;10.55;9.95;;;;;;;;;;5034877;28;20021;-58
2022/09/02 00:54:59;;;;;;;13.10;12.32;;;;;;;;;;5036443;28;20150;-59
2022/09/02 00:57:29;;;;;;;13.10;12.30;;;;;;;;;;5037365;28;20042;-59
2022/09/02 01:00:05;;;;;;;13.30;12.40;;;;;;;;;;5037415;28;20122;-57
2022/09/02 01:02:31;;;;;;;11.85;10.80;;;;;;;;;;5038651;28;20569;-59
2022/09/02 01:04:58;;;;;;;13.00;12.20;;;;;;;;;;5037383;28;20059;-59
2022/09/02 01:07:27;;;;;;;11.95;11.25;;;;;;;;;;5036671;28;20037;-59
2022/09/02 01:09:54;;;;;;;16.55;15.65;;;;;;;;;;5036140;28;20516;-59
2022/09/02 01:12:20;;;;;;;13.38;12.57;;;;;;;;;;5034702;28;20039;-58
2022/09/02 01:14:46;;;;;;;13.00;12.25;;;;;;;;;;5035207;28;20100;-58
2022/09/02 01:17:12;;;;;;;13.73;12.93;;;;;;;;;;5037481;28;20033;-58
2022/09/02 01:19:43;;;;;;;14.10;13.30;;;;;;;;;;5037516;28;20030;-58
2022/09/02 01:22:22;;;;;;;;;;;;;;;;;;5038955;28;20047;-58
2022/09/02 01:24:48;;;;;;;14.32;13.52;;;;;;;;;;5036930;28;19916;-59
2022/09/02 01:27:16;;;;;;;14.00;13.20;;;;;;;;;;5039054;28;20028;-59
2022/09/02 01:29:42;;;;;;;15.93;15.02;;;;;;;;;;5037900;28;20064;-59
2022/09/02 01:32:07;;;;;;;16.83;15.93;;;;;;;;;;5037427;28;20067;-58
2022/09/02 01:34:33;;;;;;;17.98;16.98;;;;;;;;;;5034733;28;20030;-59
2022/09/02 01:36:58;;;;;;;18.60;17.60;;;;;;;;;;5036248;28;20443;-59
2022/09/02 01:39:24;;;;;;;15.18;14.32;;;;;;;;;;5033819;28;20493;-58
2022/09/02 01:41:49;;;;;;;15.02;14.13;;;;;;;;;;5034019;28;20468;-58
2022/09/02 01:44:16;;;;;;;18.67;17.65;;;;;;;;;;5034391;28;20047;-58
2022/09/02 01:46:42;;;;;;;20.33;19.23;;;;;;;;;;5037410;28;20128;-58
2022/09/02 01:49:07;;;;;;;18.95;17.95;;;;;;;;;;5034295;28;20136;-59
2022/09/02 01:51:33;;;;;;;17.55;16.55;;;;;;;;;;5034065;28;20087;-59
2022/09/02 01:53:59;;;;;;;18.52;17.23;;;;;;;;;;5036711;28;20032;-58
2022/09/02 01:56:24;;;;;;;17.95;16.95;;;;;;;;;;5041353;28;20508;-58
2022/09/02 01:58:49;;;;;;;14.52;13.73;;;;;;;;;;5036934;28;20099;-59
2022/09/02 02:01:15;;;;;;;16.45;15.55;;;;;;;;;;5036421;28;20033;-58
2022/09/02 02:03:40;;;;;;;16.35;15.45;;;;;;;;;;5035554;28;20064;-58
2022/09/02 02:06:12;;;;;;;16.60;15.70;;;;;;;;;;5035355;28;20083;-59
2022/09/02 02:08:38;;;;;;;16.25;15.27;;;;;;;;;;5035218;28;20536;-58
2022/09/02 02:11:05;;;;;;;16.40;15.50;;;;;;;;;;5039400;28;20125;-59
2022/09/02 02:13:31;;;;;;;15.70;14.80;;;;;;;;;;5046184;28;20309;-58
2022/09/02 02:15:56;;;;;;;16.80;15.88;;;;;;;;;;5044090;28;20315;-58
2022/09/02 02:18:22;;;;;;;14.27;13.45;;;;;;;;;;5043228;28;20083;-58
2022/09/02 02:20:48;;;;;;;13.18;12.38;;;;;;;;;;5043243;28;20037;-58
2022/09/02 02:23:13;;;;;;;14.82;14.02;;;;;;;;;;5043406;28;20056;-58
2022/09/02 02:25:39;;;;;;;16.88;15.95;;;;;;;;;;5041548;28;20470;-58
2022/09/02 02:28:04;;;;;;;15.77;14.88;;;;;;;;;;5045219;28;20067;-58
2022/09/02 02:30:30;;;;;;;15.73;14.82;;;;;;;;;;5042661;28;20032;-58
2022/09/02 02:32:55;;;;;;;14.57;13.55;;;;;;;;;;5044841;28;20029;-58
2022/09/02 02:35:21;;;;;;;14.85;13.95;;;;;;;;;;5051349;28;20413;-57
2022/09/02 02:37:49;;;;;;;14.48;13.68;;;;;;;;;;5044585;28;20029;-58
2022/09/02 02:40:19;;;;;;;16.83;15.88;;;;;;;;;;5045126;28;20560;-58
2022/09/02 02:42:45;;;;;;;14.23;13.40;;;;;;;;;;5044209;28;20650;-58
2022/09/02 02:45:11;;;;;;;16.48;15.55;;;;;;;;;;5045018;28;21024;-58
2022/09/02 02:47:41;;;;;;;17.63;16.63;;;;;;;;;;5044306;28;20047;-59
2022/09/02 02:50:09;;;;;;;14.90;14.07;;;;;;;;;;5044718;28;20106;-58
2022/09/02 02:52:36;;;;;;;18.52;17.42;;;;;;;;;;5042350;28;20120;-58
2022/09/02 02:55:03;;;;;;;17.15;16.15;;;;;;;;;;5043655;28;20030;-58
2022/09/02 02:57:29;;;;;;;14.65;13.82;;;;;;;;;;5042803;28;20045;-58
2022/09/02 02:59:56;;;;;;;15.77;14.88;;;;;;;;;;5042094;28;20026;-59
2022/09/02 03:02:21;;;;;;;16.08;15.18;;;;;;;;;;5042963;28;20048;-58
2022/09/02 03:04:48;;;;;;;15.68;14.77;;;;;;;;;;5045389;28;20045;-58
2022/09/02 03:07:14;;;;;;;14.02;13.23;;;;;;;;;;5043290;28;20039;-58
2022/09/02 03:09:39;;;;;;;13.60;12.80;;;;;;;;;;5042711;28;20045;-58
2022/09/02 03:12:05;;;;;;;15.80;14.90;;;;;;;;;;5039690;28;20443;-58
2022/09/02 03:14:31;;;;;;;15.07;14.18;;;;;;;;;;5042143;28;20032;-58
2022/09/02 03:16:56;;;;;;;14.15;13.35;;;;;;;;;;5046160;28;20017;-59
2022/09/02 03:19:21;;;;;;;13.80;13.00;;;;;;;;;;5039704;28;20992;-58
2022/09/02 03:21:47;;;;;;;13.88;13.07;;;;;;;;;;5040397;28;20039;-58
2022/09/02 03:24:12;;;;;;;13.05;12.25;;;;;;;;;;5038987;28;20494;-58
2022/09/02 03:26:40;;;;;;;15.32;14.43;;;;;;;;;;5038063;28;20044;-58
2022/09/02 03:29:05;;;;;;;14.88;13.98;;;;;;;;;;5039355;28;20091;-58
2022/09/02 03:31:30;;;;;;;16.38;15.48;;;;;;;;;;5038376;28;20474;-58
2022/09/02 03:33:56;;;;;;;15.55;14.65;;;;;;;;;;5038940;28;20108;-58
2022/09/02 03:36:34;;;;;;;15.18;14.27;;;;;;;;;;5037164;28;20056;-58
2022/09/02 03:39:00;;;;;;;16.20;15.30;;;;;;;;;;5035145;28;20037;-58
2022/09/02 03:41:26;;;;;;;16.90;15.98;;;;;;;;;;5039049;28;20036;-58
2022/09/02 03:43:51;;;;;;;17.73;16.73;;;;;;;;;;5038798;28;20458;-59
2022/09/02 03:46:17;;;;;;;16.27;15.38;;;;;;;;;;5039728;28;20416;-58
2022/09/02 03:48:43;;;;;;;12.52;11.82;;;;;;;;;;5039408;28;20481;-58
2022/09/02 03:51:09;;;;;;;14.90;14.10;;;;;;;;;;5036995;28;20116;-58
2022/09/02 03:53:34;;;;;;;15.50;14.13;;;;;;;;;;5039387;28;20487;-58
2022/09/02 03:56:10;;;;;;;13.23;12.43;;;;;;;;;;5038919;28;20065;-59
2022/09/02 03:58:36;;;;;;;14.45;13.65;;;;;;;;;;5034675;28;20109;-58
2022/09/02 04:01:03;;;;;;;13.95;13.15;;;;;;;;;;5038514;28;20162;-58
2022/09/02 04:03:28;;;;;;;14.27;13.48;;;;;;;;;;5036465;28;20478;-59
2022/09/02 04:05:53;;;;;;;14.13;13.32;;;;;;;;;;5035227;28;20029;-59
2022/09/02 04:08:19;;;;;;;13.50;12.70;;;;;;;;;;5036213;28;20042;-59
2022/09/02 04:10:45;;;;;;;15.25;14.35;;;;;;;;;;5036635;28;20521;-58
2022/09/02 04:13:10;;;;;;;14.63;13.73;;;;;;;;;;5036308;28;20119;-58
2022/09/02 04:15:46;;;;;;;15.57;14.68;;;;;;;;;;5037936;28;20091;-58
2022/09/02 04:18:12;;;;;;;15.00;14.20;;;;;;;;;;5035853;28;20634;-58
2022/09/02 04:20:40;;;;;;;14.80;13.95;;;;;;;;;;5039102;28;20033;-58
2022/09/02 04:23:06;;;;;;;15.77;14.88;;;;;;;;;;5037474;28;20109;-58
2022/09/02 04:25:32;;;;;;;18.17;17.17;;;;;;;;;;5035206;28;20112;-58
2022/09/02 04:27:57;;;;;;;13.77;12.98;;;;;;;;;;5036243;28;20515;-59
2022/09/02 04:30:24;;;;;;;15.65;14.75;;;;;;;;;;5034692;28;20036;-58
2022/09/02 04:32:51;;;;;;;15.73;14.82;;;;;;;;;;5034579;28;20473;-58
2022/09/02 04:35:17;;;;;;;18.45;17.45;;;;;;;;;;5036855;28;20033;-58
2022/09/02 04:37:43;;;;;;;16.30;15.40;;;;;;;;;;5031911;28;20036;-58
2022/09/02 04:40:09;;;;;;;13.70;12.90;;;;;;;;;;5034990;28;20029;-59
2022/09/02 04:42:34;;;;;;;15.52;14.63;;;;;;;;;;5035808;28;20026;-58
2022/09/02 04:45:00;;;;;;;16.67;15.77;;;;;;;;;;5037830;28;20021;-58
2022/09/02 04:47:26;;;;;;;15.98;14.88;;;;;;;;;;5037234;28;20040;-58
2022/09/02 04:49:52;;;;;;;14.68;13.88;;;;;;;;;;5038693;28;20521;-59
2022/09/02 04:52:19;;;;;;;14.45;13.65;;;;;;;;;;5036716;28;20599;-58
2022/09/02 04:54:45;;;;;;;14.55;13.75;;;;;;;;;;5035330;28;20041;-58
2022/09/02 04:57:10;;;;;;;15.20;14.30;;;;;;;;;;5037849;28;20044;-58
2022/09/02 04:59:35;;;;;;;14.20;13.40;;;;;;;;;;5038213;28;20044;-58
2022/09/02 05:02:02;;;;;;;12.05;11.35;;;;;;;;;;5034842;28;20037;-58
2022/09/02 05:04:29;;;;;;;13.88;12.98;;;;;;;;;;5037223;28;20053;-58
2022/09/02 05:06:56;;;;;;;12.43;11.73;;;;;;;;;;5035613;28;20022;-59
2022/09/02 05:09:22;;;;;;;14.90;14.02;;;;;;;;;;5033454;28;20050;-59
2022/09/02 05:11:47;;;;;;;14.63;13.82;;;;;;;;;;5033812;28;20762;-59
2022/09/02 05:14:15;;;;;;;15.10;14.25;;;;;;;;;;5036463;28;20114;-58
2022/09/02 05:16:41;;;;;;;15.85;14.77;;;;;;;;;;5032677;28;20048;-59
2022/09/02 05:19:09;;;;;;;13.45;12.65;;;;;;;;;;5032494;28;20108;-59
2022/09/02 05:21:39;;;;;;;13.63;12.82;;;;;;;;;;5034498;28;20082;-59
2022/09/02 05:24:05;;;;;;;11.60;10.90;;;;;;;;;;5034334;28;20037;-59
2022/09/02 05:26:34;;;;;;;12.20;11.50;;;;;;;;;;5035786;28;20025;-58
2022/09/02 05:29:01;;;;;;;13.30;12.43;;;;;;;;;;5036232;28;20421;-59
2022/09/02 05:31:27;;;;;;;11.98;11.27;;;;;;;;;;5038681;28;20040;-58
2022/09/02 05:33:53;;;;;;;11.82;11.13;;;;;;;;;;5035504;28;20055;-59
2022/09/02 05:36:20;;;;;;;12.40;11.68;;;;;;;;;;5036278;28;20650;-58
2022/09/02 05:38:46;;;;;;;10.98;10.27;;;;;;;;;;5036194;28;20039;-58
2022/09/02 05:41:16;;;;;;;13.48;12.68;;;;;;;;;;5035459;28;20044;-59
2022/09/02 05:43:46;;;;;;;11.82;11.13;;;;;;;;;;5037009;28;20026;-58
2022/09/02 05:46:16;;;;;;;10.73;10.10;;;;;;;;;;5037022;28;20044;-59
2022/09/02 05:51:27;;;;;;;9.98;9.38;;;;;;;;;;5036676;28;20029;-59
2022/09/02 05:53:56;;;;;;;14.15;12.98;;;;;;;;;;5033680;28;20098;-58
2022/09/02 05:56:22;;;;;;;9.75;9.15;;;;;;;;;;5036168;28;20557;-59
2022/09/02 05:58:48;;;;;;;9.40;8.80;;;;;;;;;;5035917;28;20044;-59
2022/09/02 06:01:18;;;;;;;11.13;10.27;;;;;;;;;;5035275;28;20028;-58
2022/09/02 06:03:44;;;;;;;10.93;10.23;;;;;;;;;;5033864;28;20629;-59
2022/09/02 06:06:09;;;;;;;10.98;10.27;;;;;;;;;;5033902;28;20056;-59
2022/09/02 06:08:35;;;;;;;11.50;10.80;;;;;;;;;;5036918;28;20029;-59
2022/09/02 06:11:01;;;;;;;12.45;11.75;;;;;;;;;;5036069;28;20029;-58
2022/09/02 06:13:28;;;;;;;13.27;12.48;;;;;;;;;;5033949;28;20034;-58
2022/09/02 06:15:54;;;;;;;14.73;13.90;;;;;;;;;;5033052;28;20033;-59
2022/09/02 06:18:20;;;;;;;12.52;11.82;;;;;;;;;;5032656;28;20451;-58
2022/09/02 06:20:46;;;;;;;10.95;10.30;;;;;;;;;;5032079;28;20052;-59
2022/09/02 06:23:13;;;;;;;13.63;12.82;;;;;;;;;;5035466;28;20040;-58
2022/09/02 06:25:40;;;;;;;12.38;11.68;;;;;;;;;;5032705;28;20037;-59
2022/09/02 06:28:05;;;;;;;13.93;13.13;;;;;;;;;;5038005;28;20041;-59
2022/09/02 06:30:31;;;;;;;14.35;13.55;;;;;;;;;;5033389;28;20030;-58
2022/09/02 06:32:57;;;;;;;14.75;13.95;;;;;;;;;;5030901;28;20037;-59
2022/09/02 06:35:22;;;;;;;16.50;15.60;;;;;;;;;;5032348;28;20033;-58
2022/09/02 06:37:48;;;;;;;20.40;19.30;;;;;;;;;;5033362;28;20037;-58
2022/09/02 06:40:14;;;;;;;17.00;16.10;;;;;;;;;;5038813;28;20021;-58
2022/09/02 06:42:40;;;;;;;13.27;12.48;;;;;;;;;;5033228;28;20033;-58
2022/09/02 06:45:07;;;;;;;13.63;12.82;;;;;;;;;;5029899;28;20048;-58
2022/09/02 06:47:32;;;;;;;15.23;14.35;;;;;;;;;;5033382;28;20060;-58
2022/09/02 06:49:58;;;;;;;18.20;17.20;;;;;;;;;;5039973;28;20117;-58
2022/09/02 06:52:24;;;;;;;19.98;18.88;;;;;;;;;;5035625;28;20028;-59
2022/09/02 06:54:50;;;;;;;19.80;18.70;;;;;;;;;;5035170;28;20067;-59
2022/09/02 06:57:16;;;;;;;19.42;18.33;;;;;;;;;;5037557;28;20124;-59
2022/09/02 06:59:42;;;;;;;15.88;14.98;;;;;;;;;;5038806;28;20120;-58
2022/09/02 07:02:07;;;;;;;19.58;18.50;;;;;;;;;;5039972;28;20037;-59
2022/09/02 07:07:17;;;;;;;18.75;17.75;;;;;;;;;;5043962;28;20059;-58
2022/09/02 07:09:43;;;;;;;20.40;19.30;;;;;;;;;;5038551;28;20029;-58
2022/09/02 07:12:08;;;;;;;16.75;15.75;;;;;;;;;;5038812;28;20111;-58
2022/09/02 07:14:41;;;;;;;17.58;16.58;;;;;;;;;;5039731;28;20039;-58
2022/09/02 07:17:09;;;;;;;19.75;18.65;;;;;;;;;;5039693;28;20478;-58
2022/09/02 07:19:34;;;;;;;19.58;18.48;;;;;;;;;;5041301;28;20029;-57
2022/09/02 07:22:05;;;;;;;16.38;15.48;;;;;;;;;;5041807;28;20687;-57
2022/09/02 07:24:30;;;;;;;;;;;;;;;;;;5038606;28;20033;-57
2022/09/02 07:26:55;;;;;;;18.25;17.25;;;;;;;;;;5038971;28;19932;-57
2022/09/02 07:29:21;;;;;;;18.63;17.63;;;;;;;;;;5040627;28;20661;-57
2022/09/02 07:31:47;;;;;;;16.58;15.68;;;;;;;;;;5039878;28;20463;-57
2022/09/02 07:34:13;;;;;;;15.55;14.65;;;;;;;;;;5037157;28;20037;-57
2022/09/02 07:36:39;;;;;;;19.77;18.58;;;;;;;;;;5037704;28;20038;-56
2022/09/02 07:39:07;;;;;;;17.30;16.35;;;;;;;;;;5039820;28;20052;-57
2022/09/02 07:41:33;;;;;;;16.65;15.73;;;;;;;;;;5036550;28;20033;-57
2022/09/02 07:43:59;;;;;;;14.77;13.88;;;;;;;;;;5041611;28;20028;-59
2022/09/02 07:46:25;;;;;;;14.43;13.60;;;;;;;;;;5042439;28;20497;-57
2022/09/02 07:48:50;;;;;;;15.35;14.45;;;;;;;;;;5041633;28;20032;-60
2022/09/02 07:51:19;;;;;;;11.52;10.82;;;;;;;;;;5039283;28;20025;-59
2022/09/02 07:53:44;;;;;;;11.93;11.23;;;;;;;;;;5038660;28;20029;-59
2022/09/02 07:56:12;;;;;;;11.15;10.45;;;;;;;;;;5035393;28;20033;-58
2022/09/02 07:58:42;;;;;;;11.48;10.77;;;;;;;;;;5038880;28;20492;-59
2022/09/02 08:01:08;;;;;;;14.57;13.77;;;;;;;;;;5039962;28;20034;-59
2022/09/02 08:03:35;;;;;;;11.00;10.30;;;;;;;;;;5035683;28;20048;-59
2022/09/02 08:06:01;;;;;;;10.00;9.40;;;;;;;;;;5041189;28;20033;-59
2022/09/02 08:08:27;;;;;;;10.68;9.88;;;;;;;;;;5040019;28;20037;-60
2022/09/02 08:10:53;;;;;;;14.45;13.55;;;;;;;;;;5038125;28;20033;-61
2022/09/02 08:13:20;;;;;;;12.80;12.00;;;;;;;;;;5038650;28;20622;-60
2022/09/02 08:15:45;;;;;;;10.77;10.13;;;;;;;;;;5037567;28;20036;-60
2022/09/02 08:18:11;;;;;;;10.05;9.45;;;;;;;;;;5039961;28;20362;-60
2022/09/02 08:20:36;;;;;;;10.48;9.85;;;;;;;;;;5038218;28;20248;-60
2022/09/02 08:23:05;;;;;;;10.02;9.43;;;;;;;;;;5039542;28;20108;-61
2022/09/02 08:25:30;;;;;;;10.15;9.55;;;;;;;;;;5039052;28;20041;-60
2022/09/02 08:27:55;;;;;;;9.73;9.13;;;;;;;;;;5038217;28;20091;-60
2022/09/02 08:30:22;;;;;;;13.32;12.52;;;;;;;;;;5035167;28;20704;-60
2022/09/02 08:32:47;;;;;;;10.05;9.45;;;;;;;;;;5034931;28;20037;-61
2022/09/02 08:35:12;;;;;;;11.05;10.35;;;;;;;;;;5039440;28;20120;-61
2022/09/02 08:37:38;;;;;;;11.25;10.55;;;;;;;;;;5034802;28;20029;-60
2022/09/02 08:40:07;;;;;;;10.05;9.38;;;;;;;;;;5036151;28;20068;-60
2022/09/02 08:42:39;;;;;;;12.05;11.25;;;;;;;;;;5011053;28;20069;-58
2022/09/02 08:45:38;;;;;;;11.65;10.95;;;;;;;;;;5000019;28;20113;-58
2022/09/02 08:48:11;;;;;;;15.60;14.60;;;;;;;;;;4994700;28;20050;-58
2022/09/02 08:50:39;;;;;;;11.95;11.25;;;;;;;;;;4999726;28;20109;-57
2022/09/02 08:53:29;;;;;;;20.38;19.30;;;;;;;;;;4999603;28;20584;-58
2022/09/02 08:55:57;;;;;;;21.98;20.80;;;;;;;;;;4997994;28;20084;-59
2022/09/02 08:58:27;;;;;;;25.38;23.80;;;;;;;;;;4999631;28;20042;-59
2022/09/02 09:01:06;;;;;;;;;;;;;;;;;;5001570;28;20042;-58
2022/09/02 09:04:03;;;;;;;18.88;17.83;;;;;;;;;;4998456;28;20459;-58
2022/09/02 09:06:49;;;;;;;24.13;22.85;;;;;;;;;;4996848;28;20030;-58
2022/09/02 09:10:01;;;;;;;26.15;24.75;;;;;;;;;;4995041;28;20727;-59
2022/09/02 09:12:46;;;;;;;26.95;25.55;;;;;;;;;;4996306;28;20152;-57
2022/09/02 09:15:34;;;;;;;35.92;34.05;;;;;;;;;;4998201;28;20041;-59
2022/09/02 09:18:02;;;;;;;38.58;36.17;;;;;;;;;;4995778;28;20030;-58
2022/09/02 09:20:33;;;;;;;43.60;41.38;;;;;;;;;;5003616;28;20057;-60
2022/09/02 09:23:01;;;;;;;35.60;33.78;;;;;;;;;;4995568;28;20030;-59
2022/09/02 09:25:28;;;;;;;59.22;56.25;;;;;;;;;;4996964;28;20037;-60
2022/09/02 09:28:01;;;;;;;71.45;67.90;;;;;;;;;;5000031;28;20038;-60
2022/09/02 09:30:27;;;;;;;52.50;49.83;;;;;;;;;;4998546;28;20089;-58
2022/09/02 09:32:58;;;;;;;78.90;74.95;;;;;;;;;;4997593;28;20544;-60
2022/09/02 09:35:25;;;;;;;81.55;77.50;;;;;;;;;;4999467;28;20046;-59
2022/09/02 09:37:52;;;;;;;92.15;87.63;;;;;;;;;;4996779;28;20038;-59
2022/09/02 09:40:17;;;;;;;88.65;84.28;;;;;;;;;;4997702;28;20156;-59
2022/09/02 09:42:44;;;;;;;138.43;131.65;;;;;;;;;;5000216;28;20109;-58
2022/09/02 09:45:34;;;;;;;151.85;144.40;;;;;;;;;;5013561;28;20034;-58
2022/09/02 09:48:30;;;;;;;164.25;156.23;;;;;;;;;;4993622;28;20053;-60
2022/09/02 09:50:55;;;;;;;122.30;116.30;;;;;;;;;;4996698;28;20096;-58
2022/09/02 09:53:25;;;;;;;143.90;136.82;;;;;;;;;;4998366;28;20034;-57
2022/09/02 09:56:00;;;;;;;167.52;159.32;;;;;;;;;;5002602;28;20060;-60
2022/09/02 09:58:34;;;;;;;191.32;182.02;;;;;;;;;;4998862;28;20074;-58
2022/09/02 10:01:21;;;;;;;165.50;157.35;;;;;;;;;;5001119;28;20120;-58
2022/09/02 10:04:07;;;;;;;227.38;216.38;;;;;;;;;;4998517;28;20519;-59
2022/09/02 10:06:33;;;;;;;216.15;205.63;;;;;;;;;;4999982;28;20038;-60
2022/09/02 10:09:24;;;;;;;199.82;190.10;;;;;;;;;;5002180;28;20359;-59
2022/09/02 10:12:07;;;;;;;173.45;164.90;;;;;;;;;;4999699;28;20756;-61
2022/09/02 10:14:52;;;;;;;202.85;193.00;;;;;;;;;;4996003;28;20118;-58
2022/09/02 10:17:26;;;;;;;223.00;211.70;;;;;;;;;;4998882;28;20030;-59
2022/09/02 10:20:28;;;;;;;179.27;170.52;;;;;;;;;;5001475;28;20044;-59
2022/09/02 10:23:11;;;;;;;196.48;186.95;;;;;;;;;;5006236;28;20038;-59
2022/09/02 10:25:58;;;;;;;223.60;212.73;;;;;;;;;;4995712;28;20037;-59
2022/09/02 10:28:58;;;;;;;199.45;189.80;;;;;;;;;;4995561;28;20041;-60
2022/09/02 10:32:13;;;;;;;194.90;185.23;;;;;;;;;;4997695;28;20042;-60
2022/09/02 10:35:02;;;;;;;137.60;130.85;;;;;;;;;;4967863;28;20133;-60
2022/09/02 10:37:56;;;;;;;156.27;148.57;;;;;;;;;;4997631;28;20038;-57
2022/09/02 10:40:49;;;;;;;134.77;128.18;;;;;;;;;;4999251;28;20056;-62
2022/09/02 10:43:47;;;;;;;164.75;156.65;;;;;;;;;;4999238;28;20037;-62
2022/09/02 10:46:17;;;;;;;127.03;120.78;;;;;;;;;;4992845;28;20042;-60
2022/09/02 10:48:51;;;;;;;116.35;110.68;;;;;;;;;;5000815;28;20369;-60
2022/09/02 10:51:36;;;;;;;143.43;136.43;;;;;;;;;;4998836;28;20456;-60
2022/09/02 10:54:09;;;;;;;173.00;164.52;;;;;;;;;;4999898;28;20030;-60
2022/09/02 10:56:56;;;;;;;195.85;186.35;;;;;;;;;;4996840;28;20089;-60
2022/09/02 10:59:58;;;;;;;208.18;198.05;;;;;;;;;;5002907;28;20064;-60
2022/09/02 11:02:29;;;;;;;139.50;132.65;;;;;;;;;;5000838;28;20132;-60
2022/09/02 11:04:58;;;;;;;106.68;101.40;;;;;;;;;;4999279;28;20030;-61
2022/09/02 11:07:34;;;;;;;109.93;104.50;;;;;;;;;;4999069;28;20038;-60
2022/09/02 11:10:19;;;;;;;133.30;126.75;;;;;;;;;;4999203;28;20034;-60
2022/09/02 11:13:09;;;;;;;154.18;146.60;;;;;;;;;;4999790;28;20033;-61
2022/09/02 11:15:44;;;;;;;193.32;183.93;;;;;;;;;;4997768;28;20471;-60
2022/09/02 11:18:27;;;;;;;156.88;149.15;;;;;;;;;;4996389;28;20043;-61
2022/09/02 11:21:05;;;;;;;186.23;177.18;;;;;;;;;;4997421;28;20048;-61
2022/09/02 11:23:42;;;;;;;151.70;144.30;;;;;;;;;;4999164;28;20056;-61
2022/09/02 11:26:16;;;;;;;183.95;174.95;;;;;;;;;;4998719;28;20037;-60
2022/09/02 11:28:51;;;;;;;157.68;149.88;;;;;;;;;;5000514;28;20027;-61
2022/09/02 11:31:43;;;;;;;200.35;190.60;;;;;;;;;;4999813;28;20401;-60
2022/09/02 11:34:33;;;;;;;150.38;142.98;;;;;;;;;;4999571;28;20337;-60
2022/09/02 11:37:02;;;;;;;147.25;139.95;;;;;;;;;;4999397;28;20037;-62
2022/09/02 11:39:46;;;;;;;159.95;152.07;;;;;;;;;;4999428;28;20056;-61
2022/09/02 11:42:29;;;;;;;203.27;193.40;;;;;;;;;;5002032;28;20463;-60
2022/09/02 11:45:21;;;;;;;217.88;207.27;;;;;;;;;;4998185;28;20038;-60
2022/09/02 11:48:28;;;;;;;201.07;191.30;;;;;;;;;;5000197;28;20030;-62
2022/09/02 11:51:05;;;;;;;216.02;205.52;;;;;;;;;;5000409;28;20069;-60
2022/09/02 11:53:37;;;;;;;259.35;246.75;;;;;;;;;;4999088;28;20053;-60
2022/09/02 11:56:10;;;;;;;227.68;216.63;;;;;;;;;;5000570;28;20048;-60
2022/09/02 11:58:39;;;;;;;189.70;180.45;;;;;;;;;;4999616;28;20057;-60
2022/09/02 12:01:26;;;;;;;213.35;202.98;;;;;;;;;;4999510;28;20039;-60
2022/09/02 12:04:17;;;;;;;150.02;142.68;;;;;;;;;;4997276;28;20033;-61
2022/09/02 12:07:01;;;;;;;157.90;150.15;;;;;;;;;;5000988;28;20050;-60
2022/09/02 12:09:46;;;;;;;177.68;168.95;;;;;;;;;;4999317;28;20354;-60
2022/09/02 12:12:36;;;;;;;136.35;129.68;;;;;;;;;;4998049;28;20041;-60
2022/09/02 12:15:15;;;;;;;161.38;153.48;;;;;;;;;;5006008;28;20487;-60
2022/09/02 12:17:47;;;;;;;207.57;197.43;;;;;;;;;;5005601;28;20208;-60
2022/09/02 12:20:37;;;;;;;173.90;165.38;;;;;;;;;;4999301;28;20029;-60
2022/09/02 12:23:04;;;;;;;162.30;154.15;;;;;;;;;;4996993;28;20037;-60
2022/09/02 12:25:32;;;;;;;166.82;158.63;;;;;;;;;;4996512;28;20049;-60
2022/09/02 12:28:12;;;;;;;173.63;165.15;;;;;;;;;;4999124;28;20380;-60
2022/09/02 12:31:08;;;;;;;177.43;168.75;;;;;;;;;;4999845;28;20026;-60
2022/09/02 12:33:36;;;;;;;165.82;157.65;;;;;;;;;;4997191;28;20042;-61
2022/09/02 12:36:03;;;;;;;168.85;160.50;;;;;;;;;;5001084;28;20030;-61
2022/09/02 12:38:36;;;;;;;193.85;184.38;;;;;;;;;;4999406;28;20034;-60
2022/09/02 12:41:04;;;;;;;181.38;172.48;;;;;;;;;;4996946;28;20030;-61
2022/09/02 12:43:37;;;;;;;173.25;164.75;;;;;;;;;;4995583;28;20492;-61
2022/09/02 12:46:19;;;;;;;172.52;164.02;;;;;;;;;;4996561;28;20030;-59
2022/09/02 12:48:56;;;;;;;166.45;158.25;;;;;;;;;;4996629;28;20030;-60
2022/09/02 12:52:01;;;;;;;184.73;175.68;;;;;;;;;;4997391;28;20046;-61
2022/09/02 12:54:47;;;;;;;168.52;160.18;;;;;;;;;;4997262;28;20046;-60
2022/09/02 12:57:17;;;;;;;134.52;127.93;;;;;;;;;;4999982;28;20030;-60
2022/09/02 12:59:44;;;;;;;118.25;112.45;;;;;;;;;;4998146;28;20069;-62
2022/09/02 13:02:31;;;;;;;120.88;114.88;;;;;;;;;;5004492;28;20044;-61
2022/09/02 13:05:18;;;;;;;144.30;137.20;;;;;;;;;;4997645;28;20483;-60
2022/09/02 13:08:10;;;;;;;127.93;121.63;;;;;;;;;;4998844;28;20500;-62
2022/09/02 13:11:13;;;;;;;131.07;124.65;;;;;;;;;;4998457;28;20052;-61
2022/09/02 13:14:16;;;;;;;174.25;165.70;;;;;;;;;;4997487;28;20113;-61
2022/09/02 13:17:12;;;;;;;129.30;122.95;;;;;;;;;;5001016;28;20035;-61
2022/09/02 13:19:53;;;;;;;160.93;153.02;;;;;;;;;;4997441;28;20034;-61
2022/09/02 13:22:22;;;;;;;151.25;143.82;;;;;;;;;;4995951;28;20126;-61
2022/09/02 13:24:59;;;;;;;141.15;134.23;;;;;;;;;;4994903;28;20073;-61
2022/09/02 13:27:52;;;;;;;141.88;134.85;;;;;;;;;;4999199;28;20459;-61
2022/09/02 13:30:40;;;;;;;114.43;108.82;;;;;;;;;;4996014;28;20384;-61
2022/09/02 13:33:08;;;;;;;134.70;128.10;;;;;;;;;;4998187;28;20034;-60
2022/09/02 13:35:37;;;;;;;113.45;107.85;;;;;;;;;;4999307;28;20030;-61
2022/09/02 13:38:02;;;;;;;125.38;119.20;;;;;;;;;;4998104;28;20038;-61
2022/09/02 13:40:34;;;;;;;120.70;114.75;;;;;;;;;;4996725;28;20052;-61
2022/09/02 13:43:11;;;;;;;118.90;113.07;;;;;;;;;;4999119;28;20037;-62
2022/09/02 13:45:37;;;;;;;126.45;120.22;;;;;;;;;;4996968;28;20056;-62
2022/09/02 13:48:23;;;;;;;134.23;127.65;;;;;;;;;;4997373;28;20125;-61
2022/09/02 13:50:54;;;;;;;125.60;119.43;;;;;;;;;;4997364;28;20042;-61
2022/09/02 13:53:42;;;;;;;162.55;154.57;;;;;;;;;;4997062;28;20027;-59
2022/09/02 13:56:12;;;;;;;117.22;111.47;;;;;;;;;;4999792;28;20129;-59
2022/09/02 13:58:43;;;;;;;157.68;149.90;;;;;;;;;;4999868;28;20125;-59
2022/09/02 14:01:33;;;;;;;136.10;129.40;;;;;;;;;;5002523;28;20034;-59
2022/09/02 14:04:13;;;;;;;;;;;;;;;;;;5001306;28;20034;-59
2022/09/02 14:06:40;;;;;;;;;;;;;;;;;;4995504;28;19914;-59
2022/09/02 14:09:17;;;;;;;89.22;84.82;;;;;;;;;;4996786;28;19920;-60
2022/09/02 14:11:44;;;;;;;95.65;90.95;;;;;;;;;;4998332;28;20451;-59
2022/09/02 14:14:15;;;;;;;110.00;104.60;;;;;;;;;;4998605;28;20038;-59
2022/09/02 14:16:40;;;;;;;;;;;;;;;;;;4999739;28;20050;-59
2022/09/02 14:19:09;;;;;;;76.32;72.53;;;;;;;;;;4994685;28;19913;-59
2022/09/02 14:21:35;;;;;;;76.28;72.50;;;;;;;;;;4998485;28;20026;-60
2022/09/02 14:24:01;;;;;;;85.72;81.53;;;;;;;;;;4995355;28;20425;-59
2022/09/02 14:26:32;;;;;;;83.82;79.68;;;;;;;;;;4999073;28;20125;-59
2022/09/02 14:28:58;;;;;;;79.43;75.50;;;;;;;;;;4995564;28;20046;-60
2022/09/02 14:31:29;;;;;;;96.55;91.82;;;;;;;;;;4992866;28;20085;-59
2022/09/02 14:33:55;;;;;;;78.57;74.68;;;;;;;;;;4994265;28;20385;-59
2022/09/02 14:36:23;;;;;;;81.00;77.00;;;;;;;;;;4996018;28;20125;-59
2022/09/02 14:38:55;;;;;;;98.45;93.50;;;;;;;;;;4995933;28;20037;-59
2022/09/02 14:41:27;;;;;;;118.82;113.00;;;;;;;;;;5004182;28;20099;-59
2022/09/02 14:44:09;;;;;;;81.30;77.28;;;;;;;;;;4998065;28;20041;-60